Time;durP1;ratioP1;P1;durP2;ratioP2;P2;SDS_P1;SDS_P2;PMS_P1;PMS_P2;Temp;Humidity;BMP_temperature;BMP_pressure;BME280_temperature;BME280_humidity;BME280_pressure;Samples;Min_cycle;Max_cycle;Signal;HPM_P1;HPM_P2
2023/11/17 00:00:31;;;;;;;6.35;2.88;;;;;;;9.69;100.00;100045.53;5092953;28;20082;-65
2023/11/17 00:02:56;;;;;;;12.00;2.83;;;;;;;9.71;100.00;100030.59;5092151;28;20054;-65
2023/11/17 00:05:22;;;;;;;5.15;3.00;;;;;;;9.69;100.00;100035.94;5092375;28;20475;-65
2023/11/17 00:07:47;;;;;;;7.68;2.17;;;;;;;9.65;100.00;100017.22;5091341;28;20020;-65
2023/11/17 00:10:13;;;;;;;6.43;2.83;;;;;;;9.64;100.00;100027.75;5100866;28;20027;-65
2023/11/17 00:12:41;;;;;;;6.60;2.92;;;;;;;9.62;100.00;100020.09;5092735;28;20043;-65
2023/11/17 00:15:07;;;;;;;9.02;2.75;;;;;;;9.62;100.00;100022.72;5102325;28;20035;-65
2023/11/17 00:17:33;;;;;;;6.63;3.03;;;;;;;9.64;100.00;100019.97;5092103;28;20024;-65
2023/11/17 00:19:58;;;;;;;7.68;2.78;;;;;;;9.63;100.00;100010.53;5092424;28;20038;-65
2023/11/17 00:22:24;;;;;;;11.40;3.40;;;;;;;9.65;100.00;100006.81;5091697;28;20131;-65
2023/11/17 00:24:50;;;;;;;8.27;3.47;;;;;;;9.65;100.00;99999.00;5091251;28;20034;-65
2023/11/17 00:27:16;;;;;;;6.30;3.58;;;;;;;9.68;100.00;99994.47;5091933;28;20032;-65
2023/11/17 00:29:43;;;;;;;4.95;2.95;;;;;;;9.68;100.00;99991.88;5103031;28;20031;-65
2023/11/17 00:32:09;;;;;;;7.28;3.17;;;;;;;9.70;100.00;99995.13;5096151;28;20118;-65
2023/11/17 00:34:34;;;;;;;11.88;3.25;;;;;;;9.69;100.00;99993.50;5092175;28;20143;-65
2023/11/17 00:37:03;;;;;;;7.50;3.67;;;;;;;9.72;100.00;99988.00;5092146;28;20028;-65
2023/11/17 00:39:29;;;;;;;6.43;2.92;;;;;;;9.73;100.00;99993.06;5101180;28;20031;-65
2023/11/17 00:41:55;;;;;;;8.40;3.75;;;;;;;9.72;100.00;99999.22;5100668;28;20027;-65
2023/11/17 00:44:21;;;;;;;6.05;2.88;;;;;;;9.72;100.00;99998.41;5093905;28;20051;-65
2023/11/17 00:46:47;;;;;;;10.43;2.92;;;;;;;9.73;100.00;99990.44;5090517;28;20024;-65
2023/11/17 00:49:13;;;;;;;8.15;3.72;;;;;;;9.74;100.00;99981.69;5091790;28;20498;-65
2023/11/17 00:51:38;;;;;;;9.75;3.72;;;;;;;9.76;100.00;99981.53;5091056;28;20444;-65
2023/11/17 00:54:04;;;;;;;6.85;3.22;;;;;;;9.78;100.00;99966.59;5090461;28;20042;-65
2023/11/17 00:56:30;;;;;;;13.30;5.00;;;;;;;9.77;100.00;99965.78;5089105;28;20024;-65
2023/11/17 00:58:56;;;;;;;8.35;3.65;;;;;;;9.79;100.00;99963.84;5091923;28;20136;-65
2023/11/17 01:01:21;;;;;;;13.35;6.07;;;;;;;9.78;100.00;99959.59;5090231;28;20032;-65
2023/11/17 01:03:47;;;;;;;10.40;5.93;;;;;;;9.75;100.00;99951.28;5090582;28;20070;-65
2023/11/17 01:06:13;;;;;;;10.38;5.47;;;;;;;9.70;100.00;99953.50;5091259;28;20036;-65
2023/11/17 01:08:38;;;;;;;9.52;5.63;;;;;;;9.64;100.00;99963.56;5091010;28;20065;-65
2023/11/17 01:11:04;;;;;;;9.60;4.97;;;;;;;9.64;100.00;99968.75;5091277;28;20032;-65
2023/11/17 01:13:29;;;;;;;7.95;4.15;;;;;;;9.65;100.00;99977.38;5097517;28;20101;-65
2023/11/17 01:15:55;;;;;;;10.50;5.38;;;;;;;9.67;100.00;99970.25;5104600;28;20050;-65
2023/11/17 01:18:20;;;;;;;11.25;5.07;;;;;;;9.68;100.00;99963.25;5091360;28;20040;-65
2023/11/17 01:20:46;;;;;;;9.10;4.85;;;;;;;9.71;100.00;99965.56;5091027;28;20055;-65
2023/11/17 01:23:12;;;;;;;6.90;4.07;;;;;;;9.70;100.00;99956.94;5090948;28;20040;-65
2023/11/17 01:25:38;;;;;;;10.38;3.88;;;;;;;9.71;100.00;99955.97;5087723;28;20105;-65
2023/11/17 01:28:04;;;;;;;7.05;3.65;;;;;;;9.71;100.00;99952.53;5090903;28;20080;-65
2023/11/17 01:30:30;;;;;;;5.78;3.20;;;;;;;9.72;100.00;99947.19;5092171;28;20061;-65
2023/11/17 01:32:56;;;;;;;7.88;4.13;;;;;;;9.76;100.00;99942.50;5090379;28;20032;-65
2023/11/17 01:35:22;;;;;;;9.80;4.57;;;;;;;9.76;100.00;99932.09;5083246;28;20035;-65
2023/11/17 01:37:48;;;;;;;8.65;3.58;;;;;;;9.73;100.00;99927.19;5090365;28;20036;-65
2023/11/17 01:40:18;;;;;;;8.98;3.22;;;;;;;9.69;100.00;99915.47;5089451;28;20024;-65
2023/11/17 01:42:44;;;;;;;8.57;2.85;;;;;;;9.60;100.00;99918.00;5090526;28;20032;-65
2023/11/17 01:45:09;;;;;;;6.18;3.00;;;;;;;9.62;100.00;99920.44;5091072;28;20489;-65
2023/11/17 01:47:37;;;;;;;6.18;3.35;;;;;;;9.60;100.00;99907.59;5095717;28;20036;-65
2023/11/17 01:50:03;;;;;;;6.72;3.53;;;;;;;9.63;100.00;99907.28;5089668;28;20734;-65
2023/11/17 01:52:29;;;;;;;7.72;3.65;;;;;;;9.69;100.00;99907.66;5090516;28;20038;-65
2023/11/17 01:54:55;;;;;;;5.78;2.83;;;;;;;9.73;100.00;99909.00;5089001;28;20131;-65
2023/11/17 01:57:22;;;;;;;5.43;3.25;;;;;;;9.74;100.00;99906.25;5091658;28;20040;-65
2023/11/17 01:59:48;;;;;;;5.80;2.05;;;;;;;9.73;100.00;99917.59;5089205;28;20110;-65
2023/11/17 02:02:14;;;;;;;7.47;3.63;;;;;;;9.72;100.00;99920.38;5090332;28;20115;-65
2023/11/17 02:04:39;;;;;;;9.48;3.90;;;;;;;9.73;100.00;99911.59;5088525;28;20028;-65
2023/11/17 02:07:24;;;;;;;4.63;2.80;;;;;;;9.75;100.00;99907.88;5090659;28;20115;-65
2023/11/17 02:10:09;;;;;;;4.38;2.50;;;;;;;9.80;100.00;99917.81;5089995;28;20024;-65
2023/11/17 02:12:59;;;;;;;9.15;4.15;;;;;;;9.77;100.00;99911.13;5087622;28;20031;-65
2023/11/17 02:15:27;;;;;;;9.15;3.85;;;;;;;9.76;100.00;99895.69;5093262;28;20048;-65
2023/11/17 02:17:56;;;;;;;7.00;3.10;;;;;;;9.76;100.00;99896.50;5098902;28;20028;-65
2023/11/17 02:20:25;;;;;;;10.82;4.72;;;;;;;9.80;100.00;99889.19;5104919;28;20063;-65
2023/11/17 02:23:00;;;;;;;7.78;3.83;;;;;;;9.84;100.00;99890.53;5102641;28;20044;-65
2023/11/17 02:25:44;;;;;;;7.03;3.45;;;;;;;9.86;100.00;99891.19;5095760;28;20040;-65
2023/11/17 02:28:42;;;;;;;9.52;4.03;;;;;;;9.87;100.00;99878.03;5088596;28;20067;-65
2023/11/17 02:31:17;;;;;;;8.98;3.95;;;;;;;9.85;100.00;99879.97;5088263;28;20024;-65
2023/11/17 02:33:48;;;;;;;9.02;4.07;;;;;;;9.87;100.00;99885.03;5090381;28;20106;-65
2023/11/17 02:36:19;;;;;;;8.40;3.08;;;;;;;9.89;100.00;99886.50;5097825;28;20031;-65
2023/11/17 02:38:56;;;;;;;9.32;4.03;;;;;;;9.88;100.00;99879.66;5099944;28;20110;-65
2023/11/17 02:41:32;;;;;;;9.57;3.50;;;;;;;9.90;100.00;99879.50;5090738;28;20032;-65
2023/11/17 02:44:04;;;;;;;;;;;;;;;9.89;100.00;99875.28;5088354;28;20069;-65
2023/11/17 02:46:34;;;;;;;8.85;3.35;;;;;;;9.92;100.00;99875.75;5089393;28;19920;-65
2023/11/17 02:49:03;;;;;;;9.88;4.60;;;;;;;9.89;100.00;99857.88;5090519;28;20405;-65
2023/11/17 02:51:37;;;;;;;9.90;4.40;;;;;;;9.87;100.00;99867.63;5090553;28;20387;-65
2023/11/17 02:54:08;;;;;;;8.32;3.60;;;;;;;9.85;100.00;99866.16;5097887;28;20485;-65
2023/11/17 02:56:38;;;;;;;10.15;5.00;;;;;;;9.84;100.00;99867.13;5098315;28;20395;-65
2023/11/17 02:59:07;;;;;;;10.77;4.85;;;;;;;9.82;100.00;99863.84;5098626;28;20399;-65
2023/11/17 03:01:38;;;;;;;9.10;3.85;;;;;;;9.82;100.00;99854.25;5089897;28;20107;-65
2023/11/17 03:04:13;;;;;;;9.82;4.22;;;;;;;9.81;100.00;99864.81;5093190;28;20032;-65
2023/11/17 03:06:40;;;;;;;10.23;4.70;;;;;;;9.82;100.00;99863.84;5099846;28;20040;-65
2023/11/17 03:09:06;;;;;;;7.38;3.67;;;;;;;9.84;100.00;99873.13;5094513;28;20032;-65
2023/11/17 03:11:32;;;;;;;8.15;3.80;;;;;;;9.83;100.00;99868.91;5099082;28;20454;-65
2023/11/17 03:13:57;;;;;;;8.70;4.18;;;;;;;9.82;100.00;99869.88;5102522;28;20164;-65
2023/11/17 03:16:23;;;;;;;8.70;4.50;;;;;;;9.77;100.00;99877.31;5102474;28;20055;-66
2023/11/17 03:18:52;;;;;;;13.57;3.58;;;;;;;9.74;100.00;99877.63;5106395;28;20038;-66
2023/11/17 03:21:23;;;;;;;7.55;3.65;;;;;;;9.71;100.00;99872.72;5084823;28;20032;-66
2023/11/17 03:23:50;;;;;;;6.18;3.83;;;;;;;9.67;100.00;99880.97;5089784;28;20075;-66
2023/11/17 03:26:17;;;;;;;7.82;4.68;;;;;;;9.60;100.00;99881.59;5085541;28;20047;-65
2023/11/17 03:28:42;;;;;;;8.57;4.88;;;;;;;9.58;100.00;99877.50;5104583;28;20110;-66
2023/11/17 03:31:13;;;;;;;11.38;4.78;;;;;;;9.56;100.00;99864.66;5103655;28;20131;-65
2023/11/17 03:33:45;;;;;;;10.52;4.57;;;;;;;9.51;100.00;99853.88;5100336;28;20114;-65
2023/11/17 03:36:12;;;;;;;8.68;4.40;;;;;;;9.48;100.00;99855.97;5104998;28;20084;-65
2023/11/17 03:38:38;;;;;;;11.00;4.05;;;;;;;9.43;100.00;99858.25;5105248;28;20032;-65
2023/11/17 03:41:04;;;;;;;11.02;4.70;;;;;;;9.37;100.00;99857.06;5092662;28;20027;-65
2023/11/17 03:43:29;;;;;;;7.85;4.00;;;;;;;9.33;100.00;99847.94;5097133;28;20070;-65
2023/11/17 03:45:55;;;;;;;9.45;4.55;;;;;;;9.22;100.00;99842.97;5102511;28;20027;-65
2023/11/17 03:48:22;;;;;;;10.68;4.20;;;;;;;9.14;100.00;99842.91;5094316;28;20085;-65
2023/11/17 03:50:49;;;;;;;10.73;3.85;;;;;;;9.09;100.00;99839.94;5099035;28;20039;-65
2023/11/17 03:53:15;;;;;;;7.90;4.47;;;;;;;9.05;100.00;99838.59;5110866;28;20418;-65
2023/11/17 03:55:44;;;;;;;10.43;4.13;;;;;;;8.99;100.00;99821.81;5109919;28;20028;-65
2023/11/17 03:58:09;;;;;;;6.85;4.03;;;;;;;8.92;100.00;99823.41;5106576;28;20487;-65
2023/11/17 04:00:34;;;;;;;13.38;4.47;;;;;;;8.85;100.00;99828.38;5090847;28;20055;-65
2023/11/17 04:03:00;;;;;;;8.75;3.70;;;;;;;8.77;100.00;99825.72;5106147;28;20036;-65
2023/11/17 04:05:26;;;;;;;10.30;4.63;;;;;;;8.74;100.00;99820.81;5098326;28;20031;-65
2023/11/17 04:07:55;;;;;;;8.55;4.10;;;;;;;8.70;100.00;99811.69;5098799;28;20043;-65
2023/11/17 04:10:21;;;;;;;8.52;4.30;;;;;;;8.59;100.00;99798.91;5101415;28;20041;-65
2023/11/17 04:12:47;;;;;;;8.52;4.00;;;;;;;8.54;100.00;99798.53;5093935;28;20121;-65
2023/11/17 04:15:12;;;;;;;9.82;5.47;;;;;;;8.51;100.00;99789.25;5093587;28;20029;-65
2023/11/17 04:17:38;;;;;;;12.57;4.97;;;;;;;8.47;100.00;99792.31;5101486;28;20040;-65
2023/11/17 04:20:05;;;;;;;12.32;5.85;;;;;;;8.45;100.00;99804.63;5093417;28;20101;-65
2023/11/17 04:22:30;;;;;;;13.50;5.95;;;;;;;8.37;100.00;99812.31;5092021;28;20582;-65
2023/11/17 04:24:56;;;;;;;13.30;5.45;;;;;;;8.31;100.00;99813.69;5092775;28;20111;-65
2023/11/17 04:27:21;;;;;;;13.00;6.07;;;;;;;8.26;100.00;99808.94;5094975;28;20055;-65
2023/11/17 04:29:47;;;;;;;10.55;4.90;;;;;;;8.23;100.00;99804.03;5090683;28;20036;-65
2023/11/17 04:32:13;;;;;;;13.57;6.25;;;;;;;8.20;100.00;99791.34;5091880;28;20491;-65
2023/11/17 04:34:39;;;;;;;10.10;4.97;;;;;;;8.14;100.00;99791.94;5090919;28;20028;-65
2023/11/17 04:37:05;;;;;;;11.90;4.65;;;;;;;8.08;100.00;99802.88;5092694;28;20043;-65
2023/11/17 04:39:31;;;;;;;10.90;5.10;;;;;;;8.03;100.00;99810.31;5091809;28;20040;-65
2023/11/17 04:41:56;;;;;;;11.80;4.97;;;;;;;8.01;100.00;99822.59;5092127;28;20043;-65
2023/11/17 04:44:22;;;;;;;12.98;5.70;;;;;;;7.98;100.00;99820.28;5100799;28;20084;-65
2023/11/17 04:46:48;;;;;;;9.48;4.88;;;;;;;7.97;100.00;99821.25;5097754;28;20024;-65
2023/11/17 04:49:14;;;;;;;16.45;6.85;;;;;;;8.09;100.00;99835.66;5098499;28;20028;-65
2023/11/17 04:51:46;;;;;;;16.88;7.43;;;;;;;8.21;100.00;99841.47;5108590;28;20032;-65
2023/11/17 04:54:14;;;;;;;10.07;5.63;;;;;;;8.24;100.00;99841.19;5100433;28;20035;-65
2023/11/17 04:56:41;;;;;;;16.45;6.75;;;;;;;8.11;100.00;99846.69;5109084;28;20039;-65
2023/11/17 04:59:07;;;;;;;11.45;5.55;;;;;;;8.02;100.00;99842.41;5095950;28;20375;-65
2023/11/17 05:01:34;;;;;;;9.63;5.03;;;;;;;7.99;100.00;99850.47;5093291;28;20028;-65
2023/11/17 05:04:00;;;;;;;13.27;5.60;;;;;;;7.93;100.00;99854.44;5109808;28;20105;-65
2023/11/17 05:06:25;;;;;;;8.65;4.10;;;;;;;7.81;100.00;99858.16;5104959;28;20035;-65
2023/11/17 05:08:51;;;;;;;13.40;5.32;;;;;;;7.76;100.00;99870.72;5112434;28;20084;-65
2023/11/17 05:11:17;;;;;;;7.68;3.83;;;;;;;7.79;100.00;99872.22;5106152;28;20124;-65
2023/11/17 05:13:43;;;;;;;7.53;3.72;;;;;;;7.77;100.00;99884.50;5086012;28;20463;-65
2023/11/17 05:16:12;;;;;;;7.40;3.90;;;;;;;7.75;100.00;99887.25;5104503;28;20478;-65
2023/11/17 05:18:37;;;;;;;6.03;3.38;;;;;;;7.72;100.00;99894.50;5103816;28;20142;-65
2023/11/17 05:21:06;;;;;;;7.45;4.25;;;;;;;7.68;100.00;99891.34;5106653;28;20451;-65
2023/11/17 05:23:32;;;;;;;10.73;4.68;;;;;;;7.72;100.00;99902.28;5100740;28;20164;-65
2023/11/17 05:25:57;;;;;;;12.10;5.28;;;;;;;7.91;100.00;99910.00;5097187;28;20382;-65
2023/11/17 05:28:24;;;;;;;6.40;3.47;;;;;;;7.83;100.00;99907.28;5100651;28;20059;-65
2023/11/17 05:30:50;;;;;;;10.05;3.83;;;;;;;7.75;100.00;99887.25;5103406;28;20391;-65
2023/11/17 05:33:18;;;;;;;10.25;4.35;;;;;;;7.63;100.00;99878.81;5105749;28;20032;-65
2023/11/17 05:35:43;;;;;;;9.60;4.28;;;;;;;7.59;100.00;99876.63;5109777;28;20032;-65
2023/11/17 05:38:09;;;;;;;7.60;4.65;;;;;;;7.56;100.00;99893.28;5104297;28;20027;-65
2023/11/17 05:40:34;;;;;;;13.55;5.68;;;;;;;7.59;100.00;99910.34;5105262;28;20432;-65
2023/11/17 05:43:00;;;;;;;11.35;5.22;;;;;;;7.63;100.00;99917.69;5107874;28;20028;-65
2023/11/17 05:45:26;;;;;;;11.45;5.25;;;;;;;7.60;100.00;99920.56;5109024;28;20032;-65
2023/11/17 05:47:53;;;;;;;12.90;5.63;;;;;;;7.60;100.00;99915.38;5107641;28;20028;-65
2023/11/17 05:50:18;;;;;;;10.82;4.85;;;;;;;7.61;100.00;99923.97;5100525;28;20055;-64
2023/11/17 05:52:44;;;;;;;15.18;6.47;;;;;;;7.60;100.00;99917.16;5102209;28;20508;-64
2023/11/17 05:55:11;;;;;;;13.82;5.40;;;;;;;7.64;100.00;99921.09;5112036;28;20034;-65
2023/11/17 05:57:42;;;;;;;12.00;5.97;;;;;;;7.60;100.00;99923.16;5094114;28;20039;-64
2023/11/17 06:00:13;;;;;;;13.38;6.13;;;;;;;7.55;100.00;99914.19;5093879;28;20447;-65
2023/11/17 06:02:40;;;;;;;12.93;6.13;;;;;;;7.51;100.00;99902.47;5096118;28;20044;-64
2023/11/17 06:05:09;;;;;;;11.95;6.18;;;;;;;7.45;100.00;99910.78;5112041;28;20046;-65
2023/11/17 06:07:35;;;;;;;10.75;5.70;;;;;;;7.44;100.00;99906.56;5101735;28;20071;-65
2023/11/17 06:10:00;;;;;;;16.25;6.38;;;;;;;7.42;100.00;99904.09;5091428;28;20138;-64
2023/11/17 06:12:27;;;;;;;15.05;6.97;;;;;;;7.42;100.00;99903.28;5098675;28;20040;-64
2023/11/17 06:14:52;;;;;;;19.40;8.65;;;;;;;7.40;100.00;99916.38;5090485;28;20024;-64
2023/11/17 06:17:19;;;;;;;15.30;7.40;;;;;;;7.42;100.00;99929.19;5094494;28;20069;-64
2023/11/17 06:19:44;;;;;;;11.43;5.72;;;;;;;7.50;100.00;99939.69;5091633;28;20056;-64
2023/11/17 06:22:11;;;;;;;14.00;6.90;;;;;;;7.54;100.00;99933.28;5105957;28;20520;-64
2023/11/17 06:24:36;;;;;;;15.57;6.15;;;;;;;7.50;100.00;99935.34;5052593;28;20044;-65
2023/11/17 06:27:02;;;;;;;12.15;6.03;;;;;;;7.47;100.00;99940.78;5049030;28;20025;-65
2023/11/17 06:29:27;;;;;;;12.82;5.97;;;;;;;7.46;100.00;99931.38;5050366;28;20077;-65
2023/11/17 06:31:53;;;;;;;17.08;6.95;;;;;;;7.43;100.00;99931.66;5050504;28;20091;-65
2023/11/17 06:34:19;;;;;;;25.52;8.73;;;;;;;7.42;100.00;99930.03;5050806;28;20033;-64
2023/11/17 06:36:45;;;;;;;18.20;8.02;;;;;;;7.44;100.00;99929.88;5048859;28;20477;-64
2023/11/17 06:39:14;;;;;;;15.88;6.30;;;;;;;7.42;100.00;99930.03;5056291;28;20114;-64
2023/11/17 06:41:47;;;;;;;23.08;7.85;;;;;;;7.37;100.00;99927.00;5048839;28;20567;-65
2023/11/17 06:44:14;;;;;;;21.15;8.15;;;;;;;7.34;100.00;99924.69;5048990;28;20562;-64
2023/11/17 06:46:42;;;;;;;15.05;7.00;;;;;;;7.36;100.00;99925.38;5039690;28;20057;-64
2023/11/17 06:49:09;;;;;;;17.92;8.63;;;;;;;7.31;100.00;99927.56;5042968;28;20502;-64
2023/11/17 06:51:40;;;;;;;17.95;8.15;;;;;;;7.28;100.00;99927.84;5045093;28;20060;-65
2023/11/17 06:54:10;;;;;;;18.23;8.70;;;;;;;7.27;100.00;99928.78;5047819;28;20098;-64
2023/11/17 06:56:42;;;;;;;22.45;9.07;;;;;;;7.29;100.00;99924.28;5047275;28;20044;-64
2023/11/17 06:59:11;;;;;;;20.13;8.55;;;;;;;7.32;100.00;99927.41;5043065;28;20131;-65
2023/11/17 07:01:38;;;;;;;20.55;9.07;;;;;;;7.36;100.00;99929.75;5047688;28;20035;-65
2023/11/17 07:04:06;;;;;;;20.58;9.32;;;;;;;7.34;100.00;99927.28;5039767;28;20034;-65
2023/11/17 07:06:33;;;;;;;15.52;6.55;;;;;;;7.33;100.00;99934.25;5040576;28;20033;-64
2023/11/17 07:08:59;;;;;;;16.70;7.57;;;;;;;7.40;100.00;99936.28;5030624;28;20044;-65
2023/11/17 07:11:25;;;;;;;12.70;7.40;;;;;;;7.41;100.00;99922.38;5043946;28;20032;-65
2023/11/17 07:13:52;;;;;;;14.80;7.78;;;;;;;7.45;100.00;99928.94;5042836;28;20041;-65
2023/11/17 07:16:20;;;;;;;20.00;8.50;;;;;;;7.37;100.00;99936.56;5043707;28;20025;-65
2023/11/17 07:18:47;;;;;;;21.38;8.60;;;;;;;7.42;100.00;99937.78;5043319;28;20082;-65
2023/11/17 07:21:13;;;;;;;19.30;8.05;;;;;;;7.41;100.00;99946.53;5032390;28;20032;-65
2023/11/17 07:23:43;;;;;;;21.83;8.85;;;;;;;7.46;100.00;99954.72;5069988;28;20048;-65
2023/11/17 07:26:17;;;;;;;25.83;9.48;;;;;;;7.45;100.00;99960.03;5090686;28;20468;-65
2023/11/17 07:28:46;;;;;;;27.38;11.45;;;;;;;7.61;100.00;99957.69;5089906;28;20115;-65
2023/11/17 07:31:17;;;;;;;22.42;9.07;;;;;;;7.72;100.00;99956.72;5089961;28;20065;-65
2023/11/17 07:33:44;;;;;;;27.48;10.40;;;;;;;7.78;100.00;99951.81;5090092;28;20042;-65
2023/11/17 07:36:10;;;;;;;17.75;9.02;;;;;;;7.83;100.00;99956.56;5090617;28;20025;-65
2023/11/17 07:38:39;;;;;;;23.48;10.50;;;;;;;7.89;100.00;99963.81;5090096;28;20047;-65
2023/11/17 07:41:05;;;;;;;28.35;12.63;;;;;;;8.03;100.00;99963.38;5090124;28;20036;-65
2023/11/17 07:43:31;;;;;;;33.90;13.15;;;;;;;8.12;100.00;99961.69;5090788;28;20120;-65
2023/11/17 07:45:57;;;;;;;29.60;12.68;;;;;;;8.21;100.00;99966.84;5094473;28;20020;-65
2023/11/17 07:48:23;;;;;;;29.13;12.80;;;;;;;8.32;100.00;99987.47;5094496;28;20063;-65
2023/11/17 07:50:52;;;;;;;23.38;12.32;;;;;;;8.44;100.00;99977.75;5093935;28;20399;-65
2023/11/17 07:53:18;;;;;;;31.30;12.93;;;;;;;8.52;100.00;99987.41;5094477;28;20032;-65
2023/11/17 07:55:43;;;;;;;28.23;12.50;;;;;;;8.58;100.00;99994.63;5093362;28;20123;-65
2023/11/17 07:58:09;;;;;;;20.38;10.50;;;;;;;8.61;100.00;99996.94;5094236;28;20043;-65
2023/11/17 08:00:34;;;;;;;24.13;11.10;;;;;;;8.63;100.00;99998.41;5093464;28;20039;-64
2023/11/17 08:03:00;;;;;;;19.65;9.60;;;;;;;8.70;100.00;99998.66;5093905;28;20497;-64
2023/11/17 08:05:25;;;;;;;32.80;12.90;;;;;;;8.75;100.00;99998.25;5093846;28;20020;-64
2023/11/17 08:07:53;;;;;;;25.92;11.85;;;;;;;8.83;100.00;99991.38;5093404;28;20020;-64
2023/11/17 08:10:19;;;;;;;27.85;12.73;;;;;;;8.96;100.00;100004.03;5094216;28;20173;-66
2023/11/17 08:12:46;;;;;;;27.10;11.18;;;;;;;9.04;100.00;100009.28;5093019;28;20138;-67
2023/11/17 08:15:13;;;;;;;23.17;9.98;;;;;;;9.02;100.00;100000.00;5093417;28;20028;-67
2023/11/17 08:17:38;;;;;;;25.38;10.75;;;;;;;9.01;100.00;100008.75;5093480;28;20055;-66
2023/11/17 08:20:14;;;;;;;21.92;9.00;;;;;;;8.99;100.00;100012.31;5093560;28;20564;-67
2023/11/17 08:22:44;;;;;;;25.55;9.88;;;;;;;9.08;100.00;100013.22;5092726;28;20048;-66
2023/11/17 08:25:09;;;;;;;21.60;9.60;;;;;;;9.16;100.00;100009.91;5093413;28;20024;-66
2023/11/17 08:27:35;;;;;;;22.05;10.48;;;;;;;9.16;100.00;100015.09;5092971;28;20102;-66
2023/11/17 08:30:03;;;;;;;20.80;8.52;;;;;;;9.23;100.00;100014.38;5092352;28;20501;-66
2023/11/17 08:32:32;;;;;;;22.58;8.63;;;;;;;9.29;100.00;100023.38;5093145;28;20050;-67
2023/11/17 08:34:57;;;;;;;22.48;10.07;;;;;;;9.31;100.00;100026.66;5093601;28;20479;-66
2023/11/17 08:37:23;;;;;;;23.77;10.07;;;;;;;9.37;100.00;100041.66;5092857;28;20119;-66
2023/11/17 08:39:49;;;;;;;23.73;9.90;;;;;;;9.41;100.00;100031.78;5092802;28;20031;-66
2023/11/17 08:42:15;;;;;;;27.52;10.57;;;;;;;9.51;100.00;100035.94;5093448;28;20035;-67
2023/11/17 08:44:41;;;;;;;29.42;11.90;;;;;;;9.62;100.00;100040.91;5092801;28;20125;-66
2023/11/17 08:47:07;;;;;;;23.70;9.93;;;;;;;9.74;100.00;100043.28;5093014;28;20020;-66
2023/11/17 08:49:36;;;;;;;31.30;11.55;;;;;;;9.91;100.00;100042.47;5092202;28;20036;-67
2023/11/17 08:52:07;;;;;;;28.90;11.57;;;;;;;9.99;100.00;100032.09;5086424;28;20128;-65
2023/11/17 08:54:34;;;;;;;22.58;9.85;;;;;;;10.01;100.00;100045.78;5092259;28;20046;-65
2023/11/17 08:56:59;;;;;;;24.25;11.32;;;;;;;10.07;100.00;100045.19;5092103;28;20028;-65
2023/11/17 08:59:29;;;;;;;25.75;10.23;;;;;;;10.18;100.00;100047.56;5093338;28;20054;-65
2023/11/17 09:01:54;;;;;;;28.80;12.10;;;;;;;10.30;100.00;100054.19;5085286;28;20027;-65
2023/11/17 09:04:19;;;;;;;23.55;10.45;;;;;;;10.32;100.00;100046.22;5093329;28;20109;-65
2023/11/17 09:06:45;;;;;;;26.13;11.38;;;;;;;10.30;100.00;100046.38;5092181;28;20032;-64
2023/11/17 09:09:12;;;;;;;28.30;12.05;;;;;;;10.33;100.00;100058.28;5093374;28;20085;-64
2023/11/17 09:11:37;;;;;;;27.70;11.20;;;;;;;10.40;100.00;100061.09;5092701;28;20036;-65
2023/11/17 09:14:06;;;;;;;25.13;11.13;;;;;;;10.47;100.00;100054.25;5092953;28;20026;-65
2023/11/17 09:16:32;;;;;;;24.20;11.40;;;;;;;10.49;100.00;100067.97;5092080;28;20040;-65
2023/11/17 09:18:59;;;;;;;26.52;12.20;;;;;;;10.50;100.00;100062.59;5093083;28;20104;-65
2023/11/17 09:21:24;;;;;;;28.33;11.45;;;;;;;10.52;100.00;100065.88;5092994;28;20093;-65
2023/11/17 09:23:50;;;;;;;26.67;12.15;;;;;;;10.54;100.00;100078.72;5092345;28;20036;-65
2023/11/17 09:26:15;;;;;;;26.77;12.65;;;;;;;10.51;100.00;100074.66;5092699;28;20027;-65
2023/11/17 09:28:41;;;;;;;29.75;12.02;;;;;;;10.55;100.00;100075.16;5091880;28;20040;-65
2023/11/17 09:31:07;;;;;;;35.97;12.48;;;;;;;10.59;100.00;100081.69;5093171;28;20119;-65
2023/11/17 09:33:32;;;;;;;34.33;12.30;;;;;;;10.64;100.00;100089.88;5091293;28;20069;-65
2023/11/17 09:36:00;;;;;;;34.17;13.27;;;;;;;10.68;100.00;100085.16;5091684;28;20039;-65
2023/11/17 09:38:28;;;;;;;33.03;15.38;;;;;;;10.76;100.00;100082.63;5091703;28;20043;-65
2023/11/17 09:40:53;;;;;;;30.73;14.00;;;;;;;10.86;100.00;100086.75;5089226;28;20110;-65
2023/11/17 09:43:23;;;;;;;33.45;13.75;;;;;;;10.89;100.00;100085.59;5091916;28;20111;-65
2023/11/17 09:45:53;;;;;;;33.83;14.52;;;;;;;10.96;100.00;100097.03;5090851;28;20089;-65
2023/11/17 09:48:21;;;;;;;33.83;14.30;;;;;;;11.02;100.00;100096.41;5092362;28;20117;-65
2023/11/17 09:50:46;;;;;;;34.08;14.70;;;;;;;11.09;100.00;100099.22;5091318;28;20043;-65
2023/11/17 09:53:16;;;;;;;31.70;14.00;;;;;;;11.15;100.00;100101.19;5091533;28;20032;-65
2023/11/17 09:55:43;;;;;;;33.00;14.55;;;;;;;11.21;100.00;100095.34;5091486;28;20040;-65
2023/11/17 09:58:09;;;;;;;30.02;13.75;;;;;;;11.20;100.00;100106.75;5090751;28;20028;-65
2023/11/17 10:00:41;;;;;;;32.33;13.90;;;;;;;11.13;100.00;100114.38;5090879;28;20085;-65
2023/11/17 10:03:09;;;;;;;32.95;12.60;;;;;;;11.16;100.00;100111.47;5091397;28;20118;-65
2023/11/17 10:05:36;;;;;;;32.65;13.82;;;;;;;11.32;100.00;100108.13;5090429;28;20399;-65
2023/11/17 10:08:05;;;;;;;27.23;12.13;;;;;;;11.47;100.00;100108.31;5091469;28;20071;-65
2023/11/17 10:10:36;;;;;;;34.10;15.20;;;;;;;11.45;100.00;100105.84;5091254;28;20124;-65
2023/11/17 10:13:03;;;;;;;31.83;14.35;;;;;;;11.44;100.00;100103.41;5092502;28;20027;-65
2023/11/17 10:15:31;;;;;;;28.92;14.20;;;;;;;11.48;100.00;100102.94;5097475;28;20122;-65
2023/11/17 10:18:05;;;;;;;28.00;13.68;;;;;;;11.51;100.00;100104.41;5091686;28;20156;-65
2023/11/17 10:20:34;;;;;;;31.90;13.65;;;;;;;11.62;100.00;100101.50;5089777;28;20032;-65
2023/11/17 10:23:00;;;;;;;39.35;14.38;;;;;;;11.72;100.00;100106.59;5098885;28;20044;-65
2023/11/17 10:25:27;;;;;;;27.50;12.55;;;;;;;11.78;100.00;100106.78;5091664;28;20336;-65
2023/11/17 10:27:53;;;;;;;30.85;12.63;;;;;;;11.81;100.00;100100.44;5083340;28;20165;-66
2023/11/17 10:30:25;;;;;;;28.63;13.95;;;;;;;11.86;100.00;100104.16;5091542;28;20035;-65
2023/11/17 10:33:14;;;;;;;26.33;11.80;;;;;;;11.85;100.00;100099.09;5090903;28;20043;-65
2023/11/17 10:36:00;;;;;;;25.02;10.98;;;;;;;11.88;100.00;100098.78;5089915;28;20380;-65
2023/11/17 10:38:25;;;;;;;;;;;;;;;11.91;100.00;100099.28;5091770;28;20066;-66
2023/11/17 10:40:51;;;;;;;28.30;12.27;;;;;;;11.99;100.00;100097.66;5093459;28;19919;-65
2023/11/17 10:43:16;;;;;;;26.40;12.75;;;;;;;11.99;100.00;100103.69;5094932;28;20020;-65
2023/11/17 10:45:43;;;;;;;27.65;13.63;;;;;;;12.01;100.00;100101.75;5091364;28;20043;-64
2023/11/17 10:48:13;;;;;;;25.45;12.48;;;;;;;12.04;100.00;100106.63;5090699;28;20051;-64
2023/11/17 10:50:41;;;;;;;32.35;11.70;;;;;;;12.02;100.00;100111.22;5090482;28;20040;-65
2023/11/17 10:53:26;;;;;;;20.52;10.50;;;;;;;12.04;100.00;100111.03;5091256;28;20031;-65
2023/11/17 10:55:56;;;;;;;26.50;11.98;;;;;;;12.15;100.00;100114.16;5090431;28;20027;-65
2023/11/17 10:58:22;;;;;;;22.30;10.70;;;;;;;12.29;100.00;100118.69;5090800;28;20027;-65
2023/11/17 11:00:51;;;;;;;33.30;13.55;;;;;;;12.42;100.00;100114.78;5090521;28;20035;-65
2023/11/17 11:03:18;;;;;;;23.85;11.93;;;;;;;12.48;100.00;100120.16;5091026;28;20032;-65
2023/11/17 11:05:46;;;;;;;23.40;11.20;;;;;;;12.47;100.00;100118.53;5089999;28;20039;-65
2023/11/17 11:08:22;;;;;;;28.08;11.10;;;;;;;12.52;100.00;100120.66;5089074;28;20031;-65
2023/11/17 11:10:57;;;;;;;22.75;11.88;;;;;;;12.59;100.00;100121.63;5093138;28;20495;-65
2023/11/17 11:13:28;;;;;;;25.97;12.57;;;;;;;12.62;100.00;100127.34;5090613;28;20024;-65
2023/11/17 11:16:07;;;;;;;33.95;13.50;;;;;;;12.69;100.00;100122.28;5082569;28;20109;-65
2023/11/17 11:18:43;;;;;;;24.95;11.60;;;;;;;12.78;100.00;100120.44;5090706;28;20065;-65
2023/11/17 11:21:09;;;;;;;25.70;11.20;;;;;;;12.80;100.00;100124.53;5095793;28;20134;-65
2023/11/17 11:23:36;;;;;;;31.10;12.80;;;;;;;12.84;100.00;100125.00;5094029;28;20075;-65